sensor_id;sensor_type;location;lat;lon;timestamp;P1;durP1;ratioP1;P2;durP2;ratioP2
11620;SDS011;5866;49.094;11.900;2023-04-06T00:01:34;62.43;;;58.73;;
11620;SDS011;5866;49.094;11.900;2023-04-06T00:04:02;25.70;;;23.90;;
11620;SDS011;5866;49.094;11.900;2023-04-06T00:06:29;37.53;;;35.17;;
11620;SDS011;5866;49.094;11.900;2023-04-06T00:08:58;62.03;;;58.30;;
11620;SDS011;5866;49.094;11.900;2023-04-06T00:11:25;25.70;;;23.97;;
11620;SDS011;5866;49.094;11.900;2023-04-06T00:13:53;11.87;;;10.87;;
11620;SDS011;5866;49.094;11.900;2023-04-06T00:16:22;30.63;;;28.73;;
11620;SDS011;5866;49.094;11.900;2023-04-06T00:18:52;56.27;;;52.97;;
11620;SDS011;5866;49.094;11.900;2023-04-06T00:21:20;32.13;;;30.03;;
11620;SDS011;5866;49.094;11.900;2023-04-06T00:23:47;26.53;;;24.83;;
11620;SDS011;5866;49.094;11.900;2023-04-06T00:26:15;23.37;;;21.83;;
11620;SDS011;5866;49.094;11.900;2023-04-06T00:28:42;31.20;;;29.07;;
11620;SDS011;5866;49.094;11.900;2023-04-06T00:31:10;60.43;;;56.83;;
11620;SDS011;5866;49.094;11.900;2023-04-06T00:33:39;58.63;;;55.23;;
11620;SDS011;5866;49.094;11.900;2023-04-06T00:36:06;67.47;;;63.70;;
11620;SDS011;5866;49.094;11.900;2023-04-06T00:38:34;30.00;;;28.17;;
11620;SDS011;5866;49.094;11.900;2023-04-06T00:41:02;34.80;;;32.40;;
11620;SDS011;5866;49.094;11.900;2023-04-06T00:43:31;52.73;;;49.47;;
11620;SDS011;5866;49.094;11.900;2023-04-06T00:45:59;44.80;;;42.00;;
11620;SDS011;5866;49.094;11.900;2023-04-06T00:48:26;45.17;;;42.43;;
11620;SDS011;5866;49.094;11.900;2023-04-06T00:50:57;25.20;;;23.60;;
11620;SDS011;5866;49.094;11.900;2023-04-06T00:53:27;25.40;;;23.60;;
11620;SDS011;5866;49.094;11.900;2023-04-06T00:55:55;12.03;;;10.87;;
11620;SDS011;5866;49.094;11.900;2023-04-06T00:58:23;26.00;;;24.17;;
11620;SDS011;5866;49.094;11.900;2023-04-06T01:00:50;34.73;;;32.63;;
11620;SDS011;5866;49.094;11.900;2023-04-06T01:03:18;19.87;;;18.37;;
11620;SDS011;5866;49.094;11.900;2023-04-06T01:05:46;39.90;;;37.53;;
11620;SDS011;5866;49.094;11.900;2023-04-06T01:08:15;21.53;;;20.13;;
11620;SDS011;5866;49.094;11.900;2023-04-06T01:10:42;30.23;;;28.40;;
11620;SDS011;5866;49.094;11.900;2023-04-06T01:13:10;15.00;;;13.90;;
11620;SDS011;5866;49.094;11.900;2023-04-06T01:15:37;34.97;;;32.70;;
11620;SDS011;5866;49.094;11.900;2023-04-06T01:18:05;40.67;;;38.17;;
11620;SDS011;5866;49.094;11.900;2023-04-06T01:20:35;44.83;;;42.17;;
11620;SDS011;5866;49.094;11.900;2023-04-06T01:23:04;69.03;;;64.83;;
11620;SDS011;5866;49.094;11.900;2023-04-06T01:25:31;30.17;;;28.13;;
11620;SDS011;5866;49.094;11.900;2023-04-06T01:27:59;23.43;;;21.83;;
11620;SDS011;5866;49.094;11.900;2023-04-06T01:30:26;30.23;;;28.30;;
11620;SDS011;5866;49.094;11.900;2023-04-06T01:32:54;40.93;;;38.37;;
11620;SDS011;5866;49.094;11.900;2023-04-06T01:35:22;82.17;;;77.07;;
11620;SDS011;5866;49.094;11.900;2023-04-06T01:37:49;67.33;;;63.37;;
11620;SDS011;5866;49.094;11.900;2023-04-06T01:40:18;64.53;;;60.87;;
11620;SDS011;5866;49.094;11.900;2023-04-06T01:42:47;43.30;;;40.70;;
11620;SDS011;5866;49.094;11.900;2023-04-06T01:45:14;31.57;;;29.63;;
11620;SDS011;5866;49.094;11.900;2023-04-06T01:47:41;10.07;;;7.50;;
11620;SDS011;5866;49.094;11.900;2023-04-06T01:50:09;8.20;;;7.40;;
11620;SDS011;5866;49.094;11.900;2023-04-06T01:52:37;8.37;;;6.97;;
11620;SDS011;5866;49.094;11.900;2023-04-06T01:55:04;9.17;;;7.53;;
11620;SDS011;5866;49.094;11.900;2023-04-06T01:57:34;11.13;;;10.20;;
11620;SDS011;5866;49.094;11.900;2023-04-06T02:00:01;11.57;;;10.37;;
11620;SDS011;5866;49.094;11.900;2023-04-06T02:02:29;12.37;;;10.97;;
11620;SDS011;5866;49.094;11.900;2023-04-06T02:04:57;10.33;;;9.43;;
11620;SDS011;5866;49.094;11.900;2023-04-06T02:07:24;10.37;;;9.43;;
11620;SDS011;5866;49.094;11.900;2023-04-06T02:09:53;11.50;;;10.37;;
11620;SDS011;5866;49.094;11.900;2023-04-06T02:12:21;11.73;;;10.70;;
11620;SDS011;5866;49.094;11.900;2023-04-06T02:14:51;11.30;;;10.40;;
11620;SDS011;5866;49.094;11.900;2023-04-06T02:17:19;11.90;;;10.90;;
11620;SDS011;5866;49.094;11.900;2023-04-06T02:19:46;11.63;;;10.63;;
11620;SDS011;5866;49.094;11.900;2023-04-06T02:22:14;12.07;;;10.97;;
11620;SDS011;5866;49.094;11.900;2023-04-06T02:24:41;13.87;;;12.77;;
11620;SDS011;5866;49.094;11.900;2023-04-06T02:27:09;13.47;;;12.37;;
11620;SDS011;5866;49.094;11.900;2023-04-06T02:29:36;13.57;;;12.47;;
11620;SDS011;5866;49.094;11.900;2023-04-06T02:32:05;11.73;;;10.73;;
11620;SDS011;5866;49.094;11.900;2023-04-06T02:34:33;13.70;;;12.47;;
11620;SDS011;5866;49.094;11.900;2023-04-06T02:37:00;12.60;;;11.50;;
11620;SDS011;5866;49.094;11.900;2023-04-06T02:39:28;12.13;;;11.17;;
11620;SDS011;5866;49.094;11.900;2023-04-06T02:41:56;12.13;;;11.13;;
11620;SDS011;5866;49.094;11.900;2023-04-06T02:44:24;13.03;;;12.03;;
11620;SDS011;5866;49.094;11.900;2023-04-06T02:46:51;12.43;;;11.33;;
11620;SDS011;5866;49.094;11.900;2023-04-06T02:49:20;11.40;;;10.40;;
11620;SDS011;5866;49.094;11.900;2023-04-06T02:51:47;15.40;;;14.00;;
11620;SDS011;5866;49.094;11.900;2023-04-06T02:54:15;26.17;;;18.80;;
11620;SDS011;5866;49.094;11.900;2023-04-06T02:56:42;44.43;;;26.30;;
11620;SDS011;5866;49.094;11.900;2023-04-06T02:59:10;57.50;;;31.07;;
11620;SDS011;5866;49.094;11.900;2023-04-06T03:01:38;16.27;;;14.63;;
11620;SDS011;5866;49.094;11.900;2023-04-06T03:04:05;14.23;;;13.13;;
11620;SDS011;5866;49.094;11.900;2023-04-06T03:06:34;13.27;;;12.07;;
11620;SDS011;5866;49.094;11.900;2023-04-06T03:09:02;12.80;;;11.70;;
11620;SDS011;5866;49.094;11.900;2023-04-06T03:11:30;13.37;;;12.17;;
11620;SDS011;5866;49.094;11.900;2023-04-06T03:13:57;11.00;;;10.00;;
11620;SDS011;5866;49.094;11.900;2023-04-06T03:16:25;11.40;;;10.37;;
11620;SDS011;5866;49.094;11.900;2023-04-06T03:18:52;14.30;;;13.10;;
11620;SDS011;5866;49.094;11.900;2023-04-06T03:21:20;13.27;;;12.20;;
11620;SDS011;5866;49.094;11.900;2023-04-06T03:23:49;15.40;;;13.87;;
11620;SDS011;5866;49.094;11.900;2023-04-06T03:26:17;14.67;;;13.43;;
11620;SDS011;5866;49.094;11.900;2023-04-06T03:28:45;14.67;;;13.47;;
11620;SDS011;5866;49.094;11.900;2023-04-06T03:31:12;13.93;;;12.83;;
11620;SDS011;5866;49.094;11.900;2023-04-06T03:33:40;14.60;;;13.20;;
11620;SDS011;5866;49.094;11.900;2023-04-06T03:36:07;15.87;;;14.37;;
11620;SDS011;5866;49.094;11.900;2023-04-06T03:38:35;18.13;;;16.57;;
11620;SDS011;5866;49.094;11.900;2023-04-06T03:41:06;17.20;;;15.60;;
11620;SDS011;5866;49.094;11.900;2023-04-06T03:43:34;15.37;;;13.03;;
11620;SDS011;5866;49.094;11.900;2023-04-06T03:46:01;14.47;;;13.03;;
11620;SDS011;5866;49.094;11.900;2023-04-06T03:48:29;12.73;;;11.57;;
11620;SDS011;5866;49.094;11.900;2023-04-06T03:50:56;14.50;;;13.10;;
11620;SDS011;5866;49.094;11.900;2023-04-06T03:53:24;13.17;;;11.83;;
11620;SDS011;5866;49.094;11.900;2023-04-06T03:55:51;14.03;;;12.80;;
11620;SDS011;5866;49.094;11.900;2023-04-06T03:58:20;14.03;;;12.73;;
11620;SDS011;5866;49.094;11.900;2023-04-06T04:00:48;13.90;;;12.70;;
11620;SDS011;5866;49.094;11.900;2023-04-06T04:03:15;13.70;;;12.50;;
11620;SDS011;5866;49.094;11.900;2023-04-06T04:05:43;14.47;;;12.23;;
11620;SDS011;5866;49.094;11.900;2023-04-06T04:08:11;13.53;;;12.47;;
11620;SDS011;5866;49.094;11.900;2023-04-06T04:10:38;12.43;;;11.43;;
11620;SDS011;5866;49.094;11.900;2023-04-06T04:13:06;13.20;;;12.00;;
11620;SDS011;5866;49.094;11.900;2023-04-06T04:15:34;12.83;;;11.80;;
11620;SDS011;5866;49.094;11.900;2023-04-06T04:18:02;14.03;;;12.67;;
11620;SDS011;5866;49.094;11.900;2023-04-06T04:20:30;14.07;;;12.77;;
11620;SDS011;5866;49.094;11.900;2023-04-06T04:22:57;12.27;;;11.30;;
11620;SDS011;5866;49.094;11.900;2023-04-06T04:25:25;15.40;;;14.10;;
11620;SDS011;5866;49.094;11.900;2023-04-06T04:27:52;15.50;;;14.10;;
11620;SDS011;5866;49.094;11.900;2023-04-06T04:30:21;14.87;;;13.47;;
11620;SDS011;5866;49.094;11.900;2023-04-06T04:32:49;14.57;;;13.17;;
11620;SDS011;5866;49.094;11.900;2023-04-06T04:35:17;13.97;;;12.83;;
11620;SDS011;5866;49.094;11.900;2023-04-06T04:37:44;13.30;;;12.17;;
11620;SDS011;5866;49.094;11.900;2023-04-06T04:40:12;13.73;;;12.50;;
11620;SDS011;5866;49.094;11.900;2023-04-06T04:42:40;15.83;;;14.43;;
11620;SDS011;5866;49.094;11.900;2023-04-06T04:45:07;14.13;;;12.93;;
11620;SDS011;5866;49.094;11.900;2023-04-06T04:47:35;14.00;;;12.77;;
11620;SDS011;5866;49.094;11.900;2023-04-06T04:50:05;14.63;;;13.33;;
11620;SDS011;5866;49.094;11.900;2023-04-06T04:52:33;12.80;;;11.53;;
11620;SDS011;5866;49.094;11.900;2023-04-06T04:55:01;14.30;;;12.33;;
11620;SDS011;5866;49.094;11.900;2023-04-06T04:57:28;12.93;;;11.67;;
11620;SDS011;5866;49.094;11.900;2023-04-06T04:59:56;13.87;;;12.53;;
11620;SDS011;5866;49.094;11.900;2023-04-06T05:02:24;14.93;;;13.53;;
11620;SDS011;5866;49.094;11.900;2023-04-06T05:04:52;15.23;;;13.83;;
11620;SDS011;5866;49.094;11.900;2023-04-06T05:07:21;14.53;;;13.23;;
11620;SDS011;5866;49.094;11.900;2023-04-06T05:09:48;15.20;;;13.77;;
11620;SDS011;5866;49.094;11.900;2023-04-06T05:12:16;13.80;;;12.50;;
11620;SDS011;5866;49.094;11.900;2023-04-06T05:14:43;12.83;;;11.37;;
11620;SDS011;5866;49.094;11.900;2023-04-06T05:17:11;16.00;;;14.53;;
11620;SDS011;5866;49.094;11.900;2023-04-06T05:19:39;14.67;;;13.40;;
11620;SDS011;5866;49.094;11.900;2023-04-06T05:22:06;17.50;;;16.00;;
11620;SDS011;5866;49.094;11.900;2023-04-06T05:24:35;23.47;;;21.50;;
11620;SDS011;5866;49.094;11.900;2023-04-06T05:27:03;60.03;;;56.23;;
11620;SDS011;5866;49.094;11.900;2023-04-06T05:29:31;109.83;;;103.20;;
11620;SDS011;5866;49.094;11.900;2023-04-06T05:31:59;161.77;;;152.33;;
11620;SDS011;5866;49.094;11.900;2023-04-06T05:34:26;134.43;;;126.00;;
11620;SDS011;5866;49.094;11.900;2023-04-06T05:36:54;66.37;;;61.57;;
11620;SDS011;5866;49.094;11.900;2023-04-06T05:39:21;26.07;;;22.03;;
11620;SDS011;5866;49.094;11.900;2023-04-06T05:41:50;17.73;;;13.63;;
11620;SDS011;5866;49.094;11.900;2023-04-06T05:44:18;89.53;;;83.87;;
11620;SDS011;5866;49.094;11.900;2023-04-06T05:46:45;14.53;;;10.37;;
11620;SDS011;5866;49.094;11.900;2023-04-06T05:49:13;39.37;;;36.53;;
11620;SDS011;5866;49.094;11.900;2023-04-06T05:51:40;26.60;;;24.67;;
11620;SDS011;5866;49.094;11.900;2023-04-06T05:54:08;15.40;;;14.10;;
11620;SDS011;5866;49.094;11.900;2023-04-06T05:56:35;13.70;;;12.60;;
11620;SDS011;5866;49.094;11.900;2023-04-06T05:59:04;10.23;;;8.27;;
11620;SDS011;5866;49.094;11.900;2023-04-06T06:01:33;7.15;;;4.80;;
11620;SDS011;5866;49.094;11.900;2023-04-06T06:04:00;5.47;;;4.93;;
11620;SDS011;5866;49.094;11.900;2023-04-06T06:06:28;6.15;;;4.53;;
11620;SDS011;5866;49.094;11.900;2023-04-06T06:08:57;5.40;;;4.20;;
11620;SDS011;5866;49.094;11.900;2023-04-06T06:11:27;4.97;;;4.22;;
11620;SDS011;5866;49.094;11.900;2023-04-06T06:13:54;5.70;;;4.85;;
11620;SDS011;5866;49.094;11.900;2023-04-06T06:16:23;7.18;;;6.28;;
11620;SDS011;5866;49.094;11.900;2023-04-06T06:18:51;6.80;;;6.10;;
11620;SDS011;5866;49.094;11.900;2023-04-06T06:21:18;9.18;;;5.75;;
11620;SDS011;5866;49.094;11.900;2023-04-06T06:23:46;41.40;;;38.83;;
11620;SDS011;5866;49.094;11.900;2023-04-06T06:26:14;45.13;;;42.55;;
11620;SDS011;5866;49.094;11.900;2023-04-06T06:28:42;39.35;;;36.85;;
11620;SDS011;5866;49.094;11.900;2023-04-06T06:31:09;34.60;;;32.55;;
11620;SDS011;5866;49.094;11.900;2023-04-06T06:33:38;33.92;;;31.92;;
11620;SDS011;5866;49.094;11.900;2023-04-06T06:36:06;51.72;;;48.63;;
11620;SDS011;5866;49.094;11.900;2023-04-06T06:38:34;51.58;;;48.50;;
11620;SDS011;5866;49.094;11.900;2023-04-06T06:41:01;54.25;;;50.90;;
11620;SDS011;5866;49.094;11.900;2023-04-06T06:43:29;51.22;;;48.15;;
11620;SDS011;5866;49.094;11.900;2023-04-06T06:45:56;46.53;;;43.83;;
11620;SDS011;5866;49.094;11.900;2023-04-06T06:48:25;43.90;;;41.20;;
11620;SDS011;5866;49.094;11.900;2023-04-06T06:50:54;41.08;;;38.65;;
11620;SDS011;5866;49.094;11.900;2023-04-06T06:53:22;41.03;;;38.53;;
11620;SDS011;5866;49.094;11.900;2023-04-06T06:55:50;41.97;;;39.45;;
11620;SDS011;5866;49.094;11.900;2023-04-06T06:58:18;28.23;;;26.50;;
11620;SDS011;5866;49.094;11.900;2023-04-06T07:00:46;27.58;;;25.77;;
11620;SDS011;5866;49.094;11.900;2023-04-06T07:03:13;28.02;;;26.23;;
11620;SDS011;5866;49.094;11.900;2023-04-06T07:05:44;27.33;;;25.30;;
11620;SDS011;5866;49.094;11.900;2023-04-06T07:08:16;28.38;;;26.65;;
11620;SDS011;5866;49.094;11.900;2023-04-06T07:10:44;27.45;;;25.55;;
11620;SDS011;5866;49.094;11.900;2023-04-06T07:13:11;27.13;;;25.42;;
11620;SDS011;5866;49.094;11.900;2023-04-06T07:15:44;29.15;;;27.45;;
11620;SDS011;5866;49.094;11.900;2023-04-06T07:18:11;29.10;;;26.98;;
11620;SDS011;5866;49.094;11.900;2023-04-06T07:20:39;29.02;;;27.13;;
11620;SDS011;5866;49.094;11.900;2023-04-06T07:23:07;26.98;;;25.33;;
11620;SDS011;5866;49.094;11.900;2023-04-06T07:25:35;21.63;;;20.17;;
11620;SDS011;5866;49.094;11.900;2023-04-06T07:28:03;23.88;;;22.48;;
11620;SDS011;5866;49.094;11.900;2023-04-06T07:30:31;23.52;;;21.98;;
11620;SDS011;5866;49.094;11.900;2023-04-06T07:33:02;22.17;;;20.73;;
11620;SDS011;5866;49.094;11.900;2023-04-06T07:35:29;25.73;;;24.17;;
11620;SDS011;5866;49.094;11.900;2023-04-06T07:37:57;23.48;;;22.02;;
11620;SDS011;5866;49.094;11.900;2023-04-06T07:40:25;25.52;;;23.88;;
11620;SDS011;5866;49.094;11.900;2023-04-06T07:42:54;24.20;;;22.60;;
11620;SDS011;5866;49.094;11.900;2023-04-06T07:45:23;30.17;;;28.25;;
11620;SDS011;5866;49.094;11.900;2023-04-06T07:47:51;26.05;;;24.27;;
11620;SDS011;5866;49.094;11.900;2023-04-06T07:50:18;33.05;;;30.90;;
11620;SDS011;5866;49.094;11.900;2023-04-06T07:52:46;27.52;;;25.77;;
11620;SDS011;5866;49.094;11.900;2023-04-06T07:55:14;33.92;;;31.67;;
11620;SDS011;5866;49.094;11.900;2023-04-06T07:57:41;33.33;;;31.08;;
11620;SDS011;5866;49.094;11.900;2023-04-06T08:00:11;27.35;;;25.67;;
11620;SDS011;5866;49.094;11.900;2023-04-06T08:02:40;30.25;;;28.20;;
11620;SDS011;5866;49.094;11.900;2023-04-06T08:05:08;27.02;;;25.15;;
11620;SDS011;5866;49.094;11.900;2023-04-06T08:07:36;28.63;;;26.67;;
11620;SDS011;5866;49.094;11.900;2023-04-06T08:10:03;31.08;;;29.08;;
11620;SDS011;5866;49.094;11.900;2023-04-06T08:12:31;27.13;;;25.20;;
11620;SDS011;5866;49.094;11.900;2023-04-06T08:14:59;24.80;;;23.17;;
11620;SDS011;5866;49.094;11.900;2023-04-06T08:17:29;24.92;;;23.13;;
11620;SDS011;5866;49.094;11.900;2023-04-06T08:20:00;29.35;;;27.45;;
11620;SDS011;5866;49.094;11.900;2023-04-06T08:22:29;27.30;;;25.40;;
11620;SDS011;5866;49.094;11.900;2023-04-06T08:24:56;22.77;;;21.27;;
11620;SDS011;5866;49.094;11.900;2023-04-06T08:27:24;24.90;;;23.30;;
11620;SDS011;5866;49.094;11.900;2023-04-06T08:29:52;24.77;;;23.00;;
11620;SDS011;5866;49.094;11.900;2023-04-06T08:32:19;22.80;;;21.17;;
11620;SDS011;5866;49.094;11.900;2023-04-06T08:34:48;26.38;;;24.65;;
11620;SDS011;5866;49.094;11.900;2023-04-06T08:37:16;24.00;;;22.50;;
11620;SDS011;5866;49.094;11.900;2023-04-06T08:39:43;23.20;;;21.70;;
11620;SDS011;5866;49.094;11.900;2023-04-06T08:42:12;21.67;;;20.15;;
11620;SDS011;5866;49.094;11.900;2023-04-06T08:44:46;23.25;;;21.75;;
11620;SDS011;5866;49.094;11.900;2023-04-06T08:47:15;25.67;;;23.98;;
11620;SDS011;5866;49.094;11.900;2023-04-06T08:49:43;26.70;;;24.95;;
11620;SDS011;5866;49.094;11.900;2023-04-06T08:52:13;24.92;;;23.23;;
11620;SDS011;5866;49.094;11.900;2023-04-06T08:54:44;20.80;;;19.48;;
11620;SDS011;5866;49.094;11.900;2023-04-06T08:57:12;20.30;;;18.83;;
11620;SDS011;5866;49.094;11.900;2023-04-06T08:59:39;20.17;;;18.63;;
11620;SDS011;5866;49.094;11.900;2023-04-06T09:02:07;28.27;;;26.23;;
11620;SDS011;5866;49.094;11.900;2023-04-06T09:04:43;18.63;;;17.30;;
11620;SDS011;5866;49.094;11.900;2023-04-06T09:07:14;27.63;;;25.88;;
11620;SDS011;5866;49.094;11.900;2023-04-06T09:09:42;21.73;;;20.13;;
11620;SDS011;5866;49.094;11.900;2023-04-06T09:12:21;22.33;;;20.83;;
11620;SDS011;5866;49.094;11.900;2023-04-06T09:14:49;22.13;;;20.63;;
11620;SDS011;5866;49.094;11.900;2023-04-06T09:17:20;21.65;;;19.98;;
11620;SDS011;5866;49.094;11.900;2023-04-06T09:19:49;26.73;;;24.90;;
11620;SDS011;5866;49.094;11.900;2023-04-06T09:22:19;22.70;;;21.25;;
11620;SDS011;5866;49.094;11.900;2023-04-06T09:24:48;27.58;;;25.77;;
11620;SDS011;5866;49.094;11.900;2023-04-06T09:27:17;19.50;;;18.13;;
11620;SDS011;5866;49.094;11.900;2023-04-06T09:30:02;19.50;;;18.20;;
11620;SDS011;5866;49.094;11.900;2023-04-06T09:32:31;20.52;;;18.92;;
11620;SDS011;5866;49.094;11.900;2023-04-06T09:35:05;13.73;;;12.63;;
11620;SDS011;5866;49.094;11.900;2023-04-06T09:37:35;7.30;;;6.60;;
11620;SDS011;5866;49.094;11.900;2023-04-06T09:40:03;6.75;;;6.05;;
11620;SDS011;5866;49.094;11.900;2023-04-06T09:42:31;6.38;;;5.78;;
11620;SDS011;5866;49.094;11.900;2023-04-06T09:44:59;7.78;;;6.18;;
11620;SDS011;5866;49.094;11.900;2023-04-06T09:47:26;6.25;;;5.75;;
11620;SDS011;5866;49.094;11.900;2023-04-06T09:49:55;7.78;;;5.97;;
11620;SDS011;5866;49.094;11.900;2023-04-06T09:52:25;7.25;;;6.53;;
11620;SDS011;5866;49.094;11.900;2023-04-06T09:54:57;8.55;;;6.47;;
11620;SDS011;5866;49.094;11.900;2023-04-06T09:57:31;6.55;;;5.95;;
11620;SDS011;5866;49.094;11.900;2023-04-06T10:00:03;6.80;;;6.10;;
11620;SDS011;5866;49.094;11.900;2023-04-06T10:02:37;8.65;;;6.10;;
11620;SDS011;5866;49.094;11.900;2023-04-06T10:05:15;7.47;;;6.70;;
11620;SDS011;5866;49.094;11.900;2023-04-06T10:07:46;6.38;;;5.78;;
11620;SDS011;5866;49.094;11.900;2023-04-06T10:10:27;8.18;;;6.63;;
11620;SDS011;5866;49.094;11.900;2023-04-06T10:12:55;7.00;;;6.30;;
11620;SDS011;5866;49.094;11.900;2023-04-06T10:15:23;7.80;;;6.07;;
11620;SDS011;5866;49.094;11.900;2023-04-06T10:17:51;6.90;;;6.18;;
11620;SDS011;5866;49.094;11.900;2023-04-06T10:20:21;7.07;;;6.38;;
11620;SDS011;5866;49.094;11.900;2023-04-06T10:22:55;6.82;;;6.22;;
11620;SDS011;5866;49.094;11.900;2023-04-06T10:25:28;7.22;;;6.53;;
11620;SDS011;5866;49.094;11.900;2023-04-06T10:27:59;6.65;;;5.97;;
11620;SDS011;5866;49.094;11.900;2023-04-06T10:30:27;7.47;;;6.20;;
11620;SDS011;5866;49.094;11.900;2023-04-06T10:32:55;7.28;;;6.10;;
11620;SDS011;5866;49.094;11.900;2023-04-06T10:35:23;6.78;;;6.07;;
11620;SDS011;5866;49.094;11.900;2023-04-06T10:37:52;7.28;;;6.38;;
11620;SDS011;5866;49.094;11.900;2023-04-06T10:40:24;7.00;;;6.30;;
11620;SDS011;5866;49.094;11.900;2023-04-06T10:42:54;7.13;;;6.45;;
11620;SDS011;5866;49.094;11.900;2023-04-06T10:45:23;7.40;;;6.55;;
11620;SDS011;5866;49.094;11.900;2023-04-06T10:47:52;7.32;;;6.63;;
11620;SDS011;5866;49.094;11.900;2023-04-06T10:50:21;9.45;;;6.40;;
11620;SDS011;5866;49.094;11.900;2023-04-06T10:52:58;7.50;;;6.85;;
11620;SDS011;5866;49.094;11.900;2023-04-06T10:55:26;6.78;;;6.10;;
11620;SDS011;5866;49.094;11.900;2023-04-06T10:57:56;7.35;;;6.60;;
11620;SDS011;5866;49.094;11.900;2023-04-06T11:00:23;8.52;;;5.93;;
11620;SDS011;5866;49.094;11.900;2023-04-06T11:03:04;7.68;;;6.18;;
11620;SDS011;5866;49.094;11.900;2023-04-06T11:05:32;7.30;;;6.28;;
11620;SDS011;5866;49.094;11.900;2023-04-06T11:08:00;7.45;;;5.80;;
11620;SDS011;5866;49.094;11.900;2023-04-06T11:10:27;6.53;;;5.88;;
11620;SDS011;5866;49.094;11.900;2023-04-06T11:12:57;7.60;;;6.38;;
11620;SDS011;5866;49.094;11.900;2023-04-06T11:15:24;6.75;;;6.07;;
11620;SDS011;5866;49.094;11.900;2023-04-06T11:17:52;6.38;;;5.82;;
11620;SDS011;5866;49.094;11.900;2023-04-06T11:20:20;7.82;;;7.03;;
11620;SDS011;5866;49.094;11.900;2023-04-06T11:22:48;6.57;;;5.97;;
11620;SDS011;5866;49.094;11.900;2023-04-06T11:25:16;7.47;;;6.60;;
11620;SDS011;5866;49.094;11.900;2023-04-06T11:27:44;7.05;;;6.45;;
11620;SDS011;5866;49.094;11.900;2023-04-06T11:30:14;7.32;;;6.63;;
11620;SDS011;5866;49.094;11.900;2023-04-06T11:32:42;6.53;;;5.95;;
11620;SDS011;5866;49.094;11.900;2023-04-06T11:35:11;6.78;;;5.88;;
11620;SDS011;5866;49.094;11.900;2023-04-06T11:37:46;7.05;;;6.45;;
11620;SDS011;5866;49.094;11.900;2023-04-06T11:40:13;6.20;;;5.60;;
11620;SDS011;5866;49.094;11.900;2023-04-06T11:42:41;7.18;;;6.07;;
11620;SDS011;5866;49.094;11.900;2023-04-06T11:45:10;8.38;;;6.15;;
11620;SDS011;5866;49.094;11.900;2023-04-06T11:47:43;7.10;;;6.50;;
11620;SDS011;5866;49.094;11.900;2023-04-06T11:50:11;7.72;;;6.38;;
11620;SDS011;5866;49.094;11.900;2023-04-06T11:52:41;7.45;;;6.53;;
11620;SDS011;5866;49.094;11.900;2023-04-06T11:55:10;7.15;;;6.45;;
11620;SDS011;5866;49.094;11.900;2023-04-06T11:57:39;6.57;;;5.93;;
11620;SDS011;5866;49.094;11.900;2023-04-06T12:00:08;6.05;;;5.55;;
11620;SDS011;5866;49.094;11.900;2023-04-06T12:02:38;7.00;;;6.30;;
11620;SDS011;5866;49.094;11.900;2023-04-06T12:05:07;6.95;;;6.25;;
11620;SDS011;5866;49.094;11.900;2023-04-06T12:07:34;6.55;;;5.90;;
11620;SDS011;5866;49.094;11.900;2023-04-06T12:10:02;6.95;;;6.35;;
11620;SDS011;5866;49.094;11.900;2023-04-06T12:12:31;6.82;;;6.18;;
11620;SDS011;5866;49.094;11.900;2023-04-06T12:14:59;6.40;;;5.80;;
11620;SDS011;5866;49.094;11.900;2023-04-06T12:17:26;7.05;;;6.45;;
11620;SDS011;5866;49.094;11.900;2023-04-06T12:19:55;5.95;;;5.45;;
11620;SDS011;5866;49.094;11.900;2023-04-06T12:22:31;7.28;;;6.57;;
11620;SDS011;5866;49.094;11.900;2023-04-06T12:24:58;6.45;;;5.85;;
11620;SDS011;5866;49.094;11.900;2023-04-06T12:27:26;6.90;;;6.20;;
11620;SDS011;5866;49.094;11.900;2023-04-06T12:29:53;6.43;;;5.75;;
11620;SDS011;5866;49.094;11.900;2023-04-06T12:32:21;6.32;;;5.47;;
11620;SDS011;5866;49.094;11.900;2023-04-06T12:34:50;6.93;;;6.30;;
11620;SDS011;5866;49.094;11.900;2023-04-06T12:37:20;6.80;;;6.10;;
11620;SDS011;5866;49.094;11.900;2023-04-06T12:39:48;6.70;;;5.60;;
11620;SDS011;5866;49.094;11.900;2023-04-06T12:42:15;6.70;;;6.20;;
11620;SDS011;5866;49.094;11.900;2023-04-06T12:44:43;5.75;;;5.25;;
11620;SDS011;5866;49.094;11.900;2023-04-06T12:47:11;6.07;;;5.57;;
11620;SDS011;5866;49.094;11.900;2023-04-06T12:49:38;6.40;;;5.80;;
11620;SDS011;5866;49.094;11.900;2023-04-06T12:52:06;6.82;;;5.45;;
11620;SDS011;5866;49.094;11.900;2023-04-06T12:54:35;6.57;;;5.97;;
11620;SDS011;5866;49.094;11.900;2023-04-06T12:57:02;8.02;;;5.45;;
11620;SDS011;5866;49.094;11.900;2023-04-06T12:59:30;6.00;;;5.40;;
11620;SDS011;5866;49.094;11.900;2023-04-06T13:02:01;5.85;;;5.35;;
11620;SDS011;5866;49.094;11.900;2023-04-06T13:04:30;5.88;;;5.45;;
11620;SDS011;5866;49.094;11.900;2023-04-06T13:06:58;5.85;;;5.35;;
11620;SDS011;5866;49.094;11.900;2023-04-06T13:09:25;6.47;;;5.88;;
11620;SDS011;5866;49.094;11.900;2023-04-06T13:11:54;5.78;;;5.28;;
11620;SDS011;5866;49.094;11.900;2023-04-06T13:14:22;6.30;;;5.70;;
11620;SDS011;5866;49.094;11.900;2023-04-06T13:16:50;6.47;;;5.75;;
11620;SDS011;5866;49.094;11.900;2023-04-06T13:19:18;5.70;;;5.20;;
11620;SDS011;5866;49.094;11.900;2023-04-06T13:21:45;5.85;;;5.35;;
11620;SDS011;5866;49.094;11.900;2023-04-06T13:24:13;5.63;;;5.22;;
11620;SDS011;5866;49.094;11.900;2023-04-06T13:26:42;6.05;;;5.55;;
11620;SDS011;5866;49.094;11.900;2023-04-06T13:29:11;5.88;;;5.38;;
11620;SDS011;5866;49.094;11.900;2023-04-06T13:31:39;5.93;;;5.32;;
11620;SDS011;5866;49.094;11.900;2023-04-06T13:34:06;6.03;;;5.53;;
11620;SDS011;5866;49.094;11.900;2023-04-06T13:36:34;6.00;;;5.30;;
11620;SDS011;5866;49.094;11.900;2023-04-06T13:39:02;5.82;;;5.32;;
11620;SDS011;5866;49.094;11.900;2023-04-06T13:41:29;5.82;;;5.32;;
11620;SDS011;5866;49.094;11.900;2023-04-06T13:43:57;5.85;;;5.15;;
11620;SDS011;5866;49.094;11.900;2023-04-06T13:46:26;6.78;;;5.05;;
11620;SDS011;5866;49.094;11.900;2023-04-06T13:48:54;5.95;;;5.35;;
11620;SDS011;5866;49.094;11.900;2023-04-06T13:51:21;6.00;;;5.40;;
11620;SDS011;5866;49.094;11.900;2023-04-06T13:53:49;6.38;;;5.78;;
11620;SDS011;5866;49.094;11.900;2023-04-06T13:56:18;6.10;;;5.50;;
11620;SDS011;5866;49.094;11.900;2023-04-06T13:58:46;6.10;;;5.60;;
11620;SDS011;5866;49.094;11.900;2023-04-06T14:01:13;6.40;;;5.78;;
11620;SDS011;5866;49.094;11.900;2023-04-06T14:03:42;6.20;;;5.60;;
11620;SDS011;5866;49.094;11.900;2023-04-06T14:06:13;6.28;;;5.63;;
11620;SDS011;5866;49.094;11.900;2023-04-06T14:08:56;5.97;;;5.47;;
11620;SDS011;5866;49.094;11.900;2023-04-06T14:11:23;7.65;;;6.55;;
11620;SDS011;5866;49.094;11.900;2023-04-06T14:13:51;5.85;;;5.35;;
11620;SDS011;5866;49.094;11.900;2023-04-06T14:16:23;6.82;;;6.20;;
11620;SDS011;5866;49.094;11.900;2023-04-06T14:18:52;6.35;;;5.63;;
11620;SDS011;5866;49.094;11.900;2023-04-06T14:21:19;6.32;;;5.60;;
11620;SDS011;5866;49.094;11.900;2023-04-06T14:23:47;6.38;;;5.70;;
11620;SDS011;5866;49.094;11.900;2023-04-06T14:26:14;6.68;;;6.07;;
11620;SDS011;5866;49.094;11.900;2023-04-06T14:28:42;7.30;;;5.95;;
11620;SDS011;5866;49.094;11.900;2023-04-06T14:31:11;5.55;;;5.10;;
11620;SDS011;5866;49.094;11.900;2023-04-06T14:33:41;6.20;;;5.60;;
11620;SDS011;5866;49.094;11.900;2023-04-06T14:36:11;5.97;;;5.47;;
11620;SDS011;5866;49.094;11.900;2023-04-06T14:38:38;5.60;;;5.05;;